JKK554 UHPP-UHMM

Flight info

Callsign JKK554
Flight time 1h 22m
Altitude 32000
Route BAKEN A812 OSKET
Aircraft MD83/M-SDFGIRWY/S

Departure

Time 2026-05-09 08:17
Airport Yelizovo Airport (UHPP)

Arrival

Time 2026-05-09 09:40
Airport Sokol Airport (UHMM)
Time Latitude Longitude Altitude Speed Heading
2026-05-09 07:40 53.18164 158.43462 172 ft 0 kts 265°
2026-05-09 08:05 53.18165 158.43479 177 ft 1 kts 266°
2026-05-09 08:05 53.18165 158.43495 174 ft 2 kts 266°
2026-05-09 08:05 53.18166 158.43516 174 ft 2 kts 265°
2026-05-09 08:05 53.18167 158.43536 172 ft 2 kts 267°
2026-05-09 08:06 53.18167 158.43557 171 ft 2 kts 276°
2026-05-09 08:06 53.18164 158.43577 171 ft 2 kts 297°
2026-05-09 08:06 53.18157 158.43593 172 ft 2 kts 324°
2026-05-09 08:06 53.18145 158.43601 171 ft 2 kts 349°
2026-05-09 08:07 53.18133 158.43603 172 ft 2 kts
2026-05-09 08:07 53.18129 158.43603 171 ft 0 kts
2026-05-09 08:09 53.18130 158.43603 174 ft 1 kts
2026-05-09 08:10 53.18138 158.43604 171 ft 2 kts
2026-05-09 08:10 53.18146 158.43604 173 ft 2 kts
2026-05-09 08:10 53.18151 158.43605 170 ft 3 kts
2026-05-09 08:12 53.18160 158.43605 175 ft 3 kts
2026-05-09 08:13 53.18162 158.43605 176 ft 0 kts
2026-05-09 08:13 53.18163 158.43605 173 ft 0 kts 359°
2026-05-09 08:14 53.18171 158.43604 173 ft 4 kts 356°
2026-05-09 08:14 53.18222 158.43627 171 ft 8 kts 40°
2026-05-09 08:14 53.18254 158.43711 154 ft 9 kts 66°
2026-05-09 08:14 53.18279 158.43810 139 ft 10 kts 67°
2026-05-09 08:15 53.18295 158.43879 119 ft 0 kts 69°
2026-05-09 08:15 53.18301 158.43901 120 ft 8 kts 69°
2026-05-09 08:15 53.18319 158.43985 124 ft 7 kts 72°
2026-05-09 08:16 53.18329 158.44047 124 ft 4 kts 85°
2026-05-09 08:16 53.18311 158.44108 125 ft 5 kts 141°
2026-05-09 08:16 53.18291 158.44126 124 ft 0 kts 154°
2026-05-09 08:17 53.18117 158.44248 122 ft 71 kts 157°
2026-05-09 08:17 53.17448 158.44712 128 ft 134 kts 158°
2026-05-09 08:17 53.16450 158.45414 219 ft 173 kts 154°
2026-05-09 08:17 53.15401 158.46268 1171 ft 155 kts 152°
2026-05-09 08:18 53.14512 158.47181 2208 ft 144 kts 143°
2026-05-09 08:18 53.14074 158.47668 2695 ft 143 kts 146°
2026-05-09 08:18 53.13092 158.48453 3011 ft 167 kts 154°
2026-05-09 08:18 53.11955 158.49206 3399 ft 185 kts 154°
2026-05-09 08:19 53.10702 158.50017 3774 ft 203 kts 155°
2026-05-09 08:19 53.09325 158.50899 4110 ft 220 kts 155°
2026-05-09 08:19 53.07835 158.51851 4356 ft 243 kts 156°
2026-05-09 08:19 53.06221 158.52909 4738 ft 260 kts 154°
2026-05-09 08:20 53.04522 158.54069 5539 ft 267 kts 154°
2026-05-09 08:20 53.02809 158.55291 6511 ft 267 kts 149°
2026-05-09 08:20 53.01147 158.56618 7463 ft 265 kts 150°
2026-05-09 08:20 52.99392 158.57589 8258 ft 272 kts 170°
2026-05-09 08:21 52.97507 158.57243 9080 ft 276 kts 198°
2026-05-09 08:21 52.95922 158.55474 9937 ft 279 kts 225°
2026-05-09 08:21 52.94896 158.52656 10247 ft 301 kts 248°
2026-05-09 08:21 52.94579 158.49076 10333 ft 329 kts 269°
2026-05-09 08:22 52.95086 158.45303 10481 ft 354 kts 290°
2026-05-09 08:22 52.96440 158.41836 11043 ft 365 kts 309°
2026-05-09 08:22 52.98459 158.39269 11904 ft 368 kts 329°
2026-05-09 08:22 53.00880 158.37927 12814 ft 371 kts 347°
2026-05-09 08:23 53.03473 158.37918 13612 ft 377 kts
2026-05-09 08:23 53.05990 158.39247 14189 ft 386 kts 23°
2026-05-09 08:23 53.08373 158.41356 14871 ft 388 kts 19°
2026-05-09 08:23 53.10916 158.42814 15537 ft 389 kts
2026-05-09 08:24 53.13580 158.43458 16033 ft 394 kts 358°
2026-05-09 08:24 53.16326 158.43645 16594 ft 397 kts 353°
2026-05-09 08:24 53.19086 158.43419 17276 ft 394 kts 342°
2026-05-09 08:24 53.21635 158.41925 17919 ft 389 kts 326°
2026-05-09 08:25 53.23990 158.39677 18373 ft 393 kts 322°
2026-05-09 08:25 53.26325 158.37273 18920 ft 394 kts 321°
2026-05-09 08:25 53.28659 158.34884 19528 ft 395 kts 321°
2026-05-09 08:25 53.31003 158.32520 19960 ft 400 kts 322°
2026-05-09 08:26 53.33408 158.30158 20491 ft 403 kts 321°
2026-05-09 08:26 53.35849 158.27824 21072 ft 404 kts 322°
2026-05-09 08:26 53.38303 158.25518 21559 ft 406 kts 322°
2026-05-09 08:26 53.40786 158.23196 22053 ft 409 kts 322°
2026-05-09 08:27 53.43271 158.20869 22540 ft 411 kts 323°
2026-05-09 08:27 53.45779 158.18512 23016 ft 414 kts 321°
2026-05-09 08:27 53.48287 158.16145 23445 ft 416 kts 322°
2026-05-09 08:27 53.50786 158.13779 23842 ft 418 kts 320°
2026-05-09 08:28 53.53341 158.11391 24119 ft 424 kts 323°
2026-05-09 08:28 53.55957 158.09024 24430 ft 428 kts 326°
2026-05-09 08:28 53.58609 158.06732 24820 ft 431 kts 326°
2026-05-09 08:28 53.61248 158.04346 25163 ft 431 kts 323°
2026-05-09 08:29 53.63836 158.01789 25570 ft 432 kts 321°
2026-05-09 08:29 53.66413 157.99145 25931 ft 435 kts 321°
2026-05-09 08:29 53.69037 157.96555 26287 ft 439 kts 322°
2026-05-09 08:29 53.71683 157.93964 26679 ft 441 kts 321°
2026-05-09 08:30 53.74326 157.91364 27222 ft 440 kts 321°
2026-05-09 08:30 53.76974 157.88815 27845 ft 437 kts 321°
2026-05-09 08:30 53.79614 157.86322 28428 ft 434 kts 320°
2026-05-09 08:30 53.82191 157.83805 28920 ft 431 kts 318°
2026-05-09 08:31 53.84760 157.81212 29411 ft 430 kts 318°
2026-05-09 08:31 53.87338 157.78663 29894 ft 429 kts 318°
2026-05-09 08:31 53.89931 157.76133 30288 ft 428 kts 319°
2026-05-09 08:31 53.92496 157.73616 30646 ft 427 kts 318°
2026-05-09 08:32 53.95056 157.71079 30942 ft 427 kts 318°
2026-05-09 08:32 53.97623 157.68504 31287 ft 427 kts 318°
2026-05-09 08:32 54.02768 157.63399 31681 ft 429 kts 320°
2026-05-09 08:33 54.05323 157.60919 31715 ft 428 kts 320°
2026-05-09 08:33 54.10454 157.55909 31772 ft 424 kts 320°
2026-05-09 08:34 54.15543 157.50861 31809 ft 423 kts 319°
2026-05-09 08:34 54.20635 157.45789 31818 ft 425 kts 320°
2026-05-09 08:35 54.25726 157.40787 31797 ft 425 kts 320°
2026-05-09 08:35 54.30810 157.35737 31789 ft 420 kts 319°
2026-05-09 08:36 54.35833 157.30589 31801 ft 422 kts 319°
2026-05-09 08:36 54.40935 157.25559 31782 ft 423 kts 320°
2026-05-09 08:37 54.46035 157.20542 31807 ft 423 kts 320°
2026-05-09 08:37 54.51096 157.15485 31797 ft 423 kts 320°
2026-05-09 08:38 54.56174 157.10334 31809 ft 424 kts 320°
2026-05-09 08:38 54.61265 157.05199 31810 ft 424 kts 320°
2026-05-09 08:39 54.66351 157.00022 31834 ft 424 kts 320°
2026-05-09 08:39 54.71391 156.94841 31819 ft 425 kts 321°
2026-05-09 08:40 54.76496 156.89642 31823 ft 426 kts 321°
2026-05-09 08:40 54.81609 156.84435 31821 ft 427 kts 321°
2026-05-09 08:41 54.86731 156.79200 31828 ft 427 kts 321°
2026-05-09 08:41 54.91670 156.74095 31842 ft 430 kts 322°
2026-05-09 08:42 54.96828 156.68800 31840 ft 431 kts 322°
2026-05-09 08:42 55.01992 156.63464 31835 ft 431 kts 322°
2026-05-09 08:43 55.07138 156.58105 31832 ft 430 kts 322°
2026-05-09 08:43 55.12228 156.52785 31865 ft 430 kts 323°
2026-05-09 08:44 55.17369 156.47393 31848 ft 433 kts 323°
2026-05-09 08:44 55.22557 156.41993 31847 ft 434 kts 323°
2026-05-09 08:45 55.27753 156.36571 31847 ft 435 kts 323°
2026-05-09 08:45 55.32903 156.31171 31854 ft 434 kts 323°
2026-05-09 08:46 55.38076 156.25703 31861 ft 434 kts 323°
2026-05-09 08:46 55.43250 156.20215 31859 ft 433 kts 323°
2026-05-09 08:47 55.48403 156.14706 31867 ft 434 kts 323°
2026-05-09 08:47 55.53535 156.09201 31865 ft 434 kts 323°
2026-05-09 08:48 55.58700 156.03642 31881 ft 435 kts 324°
2026-05-09 08:48 55.63877 155.98064 31872 ft 436 kts 324°
2026-05-09 08:49 55.69065 155.92478 31870 ft 437 kts 324°
2026-05-09 08:49 55.74256 155.86867 31868 ft 436 kts 324°
2026-05-09 08:50 55.79393 155.81292 31872 ft 435 kts 324°
2026-05-09 08:50 55.84545 155.75672 31882 ft 434 kts 324°
2026-05-09 08:51 55.89690 155.70027 31880 ft 434 kts 324°
2026-05-09 08:51 55.94827 155.64359 31885 ft 435 kts 324°
2026-05-09 08:52 55.99945 155.58721 31882 ft 436 kts 324°
2026-05-09 08:52 56.05106 155.53032 31903 ft 436 kts 324°
2026-05-09 08:53 56.10282 155.47310 31896 ft 437 kts 324°
2026-05-09 08:53 56.15460 155.41598 31891 ft 437 kts 325°
2026-05-09 08:54 56.20582 155.35889 31889 ft 435 kts 323°
2026-05-09 08:54 56.25721 155.30138 31887 ft 435 kts 324°
2026-05-09 08:55 56.30895 155.24485 31893 ft 436 kts 325°
2026-05-09 08:55 56.36088 155.18815 31898 ft 437 kts 325°
2026-05-09 08:56 56.41286 155.13097 31896 ft 438 kts 324°
2026-05-09 08:56 56.46308 155.07535 31897 ft 439 kts 324°
2026-05-09 08:57 56.51508 155.01756 31913 ft 438 kts 324°
2026-05-09 08:57 56.56701 154.95954 31903 ft 438 kts 324°
2026-05-09 08:58 56.61876 154.90122 31902 ft 438 kts 324°
2026-05-09 08:58 56.67052 154.84292 31901 ft 438 kts 324°
2026-05-09 08:59 56.72199 154.78498 31901 ft 437 kts 324°
2026-05-09 08:59 56.77368 154.72664 31901 ft 438 kts 324°
2026-05-09 09:00 56.82547 154.66800 31905 ft 438 kts 324°
2026-05-09 09:00 56.87721 154.60923 31903 ft 438 kts 324°
2026-05-09 09:01 56.92861 154.55043 31906 ft 439 kts 324°
2026-05-09 09:01 56.98032 154.49080 31930 ft 439 kts 324°
2026-05-09 09:02 57.03214 154.43116 31911 ft 440 kts 324°
2026-05-09 09:02 57.08408 154.37146 31908 ft 441 kts 324°
2026-05-09 09:03 57.13570 154.31108 31907 ft 439 kts 323°
2026-05-09 09:03 57.18740 154.25220 31909 ft 440 kts 324°
2026-05-09 09:04 57.23899 154.19142 31914 ft 441 kts 323°
2026-05-09 09:04 57.29030 154.12907 31909 ft 442 kts 323°
2026-05-09 09:05 57.34198 154.06708 31909 ft 443 kts 323°
2026-05-09 09:05 57.39346 154.00581 31907 ft 442 kts 323°
2026-05-09 09:06 57.44511 153.94423 31907 ft 441 kts 323°
2026-05-09 09:06 57.49661 153.88241 31915 ft 441 kts 323°
2026-05-09 09:07 57.54810 153.82046 31908 ft 441 kts 323°
2026-05-09 09:07 57.59961 153.75795 31908 ft 442 kts 323°
2026-05-09 09:08 57.65082 153.69546 31914 ft 443 kts 323°
2026-05-09 09:08 57.70247 153.63250 31926 ft 444 kts 323°
2026-05-09 09:09 57.75419 153.56932 31911 ft 443 kts 324°
2026-05-09 09:09 57.80580 153.50627 31914 ft 442 kts 323°
2026-05-09 09:10 57.85706 153.44275 31914 ft 441 kts 323°
2026-05-09 09:10 57.90796 153.37972 31921 ft 442 kts 323°
2026-05-09 09:11 57.95940 153.31616 31917 ft 442 kts 324°
2026-05-09 09:11 58.01094 153.25250 31913 ft 443 kts 324°
2026-05-09 09:12 58.06253 153.18865 31922 ft 444 kts 324°
2026-05-09 09:12 58.11378 153.12492 31921 ft 444 kts 324°
2026-05-09 09:13 58.16535 153.06050 31913 ft 443 kts 324°
2026-05-09 09:13 58.21631 152.99482 31923 ft 442 kts 322°
2026-05-09 09:14 58.26632 152.92699 31923 ft 442 kts 322°
2026-05-09 09:14 58.31599 152.85976 31923 ft 441 kts 322°
2026-05-09 09:15 58.36616 152.79227 31923 ft 442 kts 323°
2026-05-09 09:15 58.41641 152.72476 31931 ft 442 kts 323°
2026-05-09 09:16 58.46670 152.65689 31927 ft 443 kts 323°
2026-05-09 09:16 58.54187 152.55520 31925 ft 443 kts 323°
2026-05-09 09:17 58.59227 152.48722 31921 ft 443 kts 324°
2026-05-09 09:17 58.64339 152.42155 31923 ft 442 kts 325°
2026-05-09 09:18 58.69468 152.35643 31926 ft 441 kts 325°
2026-05-09 09:18 58.74582 152.29110 31923 ft 441 kts 325°
2026-05-09 09:19 58.79645 152.22530 31923 ft 442 kts 324°
2026-05-09 09:19 58.84736 152.15864 31924 ft 443 kts 324°
2026-05-09 09:20 58.89839 152.09177 31924 ft 444 kts 325°
2026-05-09 09:20 58.94952 152.02461 31921 ft 444 kts 325°
2026-05-09 09:21 59.00029 151.95791 31748 ft 446 kts 325°
2026-05-09 09:21 59.02613 151.92388 31182 ft 450 kts 325°
2026-05-09 09:21 59.05190 151.88987 30601 ft 446 kts 325°
2026-05-09 09:22 59.07746 151.85606 29985 ft 443 kts 325°
2026-05-09 09:22 59.10281 151.82249 29261 ft 438 kts 324°
2026-05-09 09:22 59.12781 151.78931 28556 ft 432 kts 325°
2026-05-09 09:22 59.15244 151.75656 27861 ft 426 kts 325°
2026-05-09 09:23 59.17675 151.72426 27175 ft 420 kts 325°
2026-05-09 09:23 59.20046 151.69282 26526 ft 415 kts 325°
2026-05-09 09:23 59.22417 151.66141 25874 ft 411 kts 325°
2026-05-09 09:23 59.24773 151.63019 25201 ft 407 kts 324°
2026-05-09 09:24 59.27096 151.59938 24544 ft 403 kts 324°
2026-05-09 09:24 59.29403 151.56856 23875 ft 400 kts 324°
2026-05-09 09:24 59.31631 151.53645 23147 ft 395 kts 315°
2026-05-09 09:24 59.33466 151.49686 22392 ft 390 kts 308°
2026-05-09 09:25 59.35124 151.45512 21750 ft 385 kts 306°
2026-05-09 09:25 59.36727 151.41352 21121 ft 380 kts 306°
2026-05-09 09:25 59.38286 151.37302 20491 ft 376 kts 307°
2026-05-09 09:25 59.39864 151.33239 19860 ft 372 kts 307°
2026-05-09 09:26 59.41437 151.29239 19251 ft 369 kts 308°
2026-05-09 09:26 59.43008 151.25286 18617 ft 366 kts 308°
2026-05-09 09:26 59.44577 151.21368 17967 ft 364 kts 308°
2026-05-09 09:26 59.46137 151.17479 17278 ft 361 kts 308°
2026-05-09 09:27 59.47675 151.13617 16652 ft 357 kts 308°
2026-05-09 09:27 59.49199 151.09787 16059 ft 353 kts 308°
2026-05-09 09:27 59.50691 151.06061 15485 ft 350 kts 309°
2026-05-09 09:27 59.52199 151.02308 14886 ft 347 kts 308°
2026-05-09 09:28 59.53686 150.98576 14311 ft 345 kts 309°
2026-05-09 09:28 59.55161 150.94872 13731 ft 343 kts 309°
2026-05-09 09:28 59.56634 150.91190 13082 ft 341 kts 309°
2026-05-09 09:28 59.57601 150.88768 12674 ft 339 kts 309°
2026-05-09 09:29 59.59524 150.83874 11911 ft 335 kts 308°
2026-05-09 09:29 59.60938 150.80249 11337 ft 332 kts 308°
2026-05-09 09:29 59.62340 150.76650 10804 ft 329 kts 308°
2026-05-09 09:29 59.63720 150.73097 10462 ft 320 kts 308°
2026-05-09 09:30 59.65035 150.69723 10282 ft 308 kts 308°
2026-05-09 09:30 59.66327 150.66434 10094 ft 298 kts 308°
2026-05-09 09:30 59.67552 150.63319 9870 ft 274 kts 308°
2026-05-09 09:30 59.68702 150.60367 9221 ft 276 kts 307°
2026-05-09 09:31 59.69902 150.57254 8432 ft 290 kts 308°
2026-05-09 09:31 59.71150 150.54073 7744 ft 291 kts 308°
2026-05-09 09:31 59.72372 150.51000 7320 ft 275 kts 308°
2026-05-09 09:32 59.74591 150.45312 6417 ft 262 kts 306°
2026-05-09 09:32 59.75667 150.42437 5927 ft 261 kts 305°
2026-05-09 09:32 59.76731 150.39551 5480 ft 263 kts 306°
2026-05-09 09:32 59.77771 150.36576 5061 ft 260 kts 297°
2026-05-09 09:33 59.78767 150.33589 4698 ft 257 kts 300°
2026-05-09 09:33 59.79831 150.30771 4358 ft 254 kts 304°
2026-05-09 09:33 59.81137 150.28410 3856 ft 256 kts 328°
2026-05-09 09:33 59.82810 150.27528 3602 ft 247 kts 356°
2026-05-09 09:34 59.84466 150.27980 3558 ft 236 kts
2026-05-09 09:34 59.86075 150.28577 3565 ft 235 kts
2026-05-09 09:34 59.87690 150.29093 3582 ft 228 kts
2026-05-09 09:36 59.91900 150.42052 3515 ft 182 kts 90°
2026-05-09 09:36 59.91803 150.44527 3329 ft 180 kts 87°
2026-05-09 09:36 59.91788 150.47061 2922 ft 188 kts 85°
2026-05-09 09:37 59.91709 150.49629 2587 ft 179 kts 89°
2026-05-09 09:37 59.91626 150.51923 2357 ft 154 kts 88°
2026-05-09 09:37 59.91573 150.53977 2034 ft 145 kts 88°
2026-05-09 09:37 59.91523 150.55975 1822 ft 143 kts 88°
2026-05-09 09:38 59.91483 150.57953 1686 ft 144 kts 87°
2026-05-09 09:38 59.91415 150.59977 1455 ft 147 kts 94°
2026-05-09 09:38 59.91323 150.61985 1241 ft 144 kts 90°
2026-05-09 09:38 59.91294 150.63971 1042 ft 142 kts 87°
2026-05-09 09:39 59.91255 150.65914 868 ft 142 kts 90°
2026-05-09 09:39 59.91204 150.67899 681 ft 142 kts 89°
2026-05-09 09:39 59.91158 150.69846 573 ft 134 kts 90°
2026-05-09 09:39 59.91119 150.71233 579 ft 69 kts 95°
2026-05-09 09:40 59.91098 150.71942 579 ft 37 kts 93°
2026-05-09 09:40 59.91086 150.72421 580 ft 32 kts 93°
2026-05-09 09:40 59.91088 150.72644 580 ft 12 kts 61°
2026-05-09 09:40 59.91150 150.72684 580 ft 8 kts
2026-05-09 09:41 59.91163 150.72685 579 ft 0 kts
2026-05-09 09:41 59.91204 150.72688 582 ft 14 kts
2026-05-09 09:41 59.91289 150.72673 583 ft 10 kts 335°
2026-05-09 09:41 59.91344 150.72653 580 ft 0 kts
2026-05-09 09:42 59.91347 150.72653 583 ft 0 kts
2026-05-09 09:45 59.91345 150.72653 578 ft 0 kts 360°